WBGS

Sibu Airport

Airport
ICAO code
WBGS
IATA Code
SBW
Summary
ICAO Region
APAC
ICAO Territory
Location

Sibu Jaya, Sarawak

Serving
Sibu
Elevation
122 ft
Coordinates
2° 15' 42" N , 111° 59' 7" E
KCC
Metar
WBGS 301500Z 00000KT 9999 -RA FEW007 SCT016 26/25 Q1010

Airport located 14 nm east southeast of Sibu, Sarawak, Malaysia.

Airport map

Aerial View

SKYbrary Partners:

Safety knowledge contributed by: